Rocky Grove, Pennsylvania
Current Conditions -  °F | °C
As of 4:55 PM on Saturday 27 Dec 2014 (Local Time) from KFKL Reporting Station
Overcast Overcast  
Wind Chill: 10°   Ceiling: 4700
Heat Index: 10°   Visibility: 10mi
Dew Point:   Wind: 12mph
Humidity: 58%   Direction: 200°SSW
Pressure: 30.06"   Gusts: 18mph
Location:  41.4663°N, 79.8305°W
Report Text: KFKL 272155Z AUTO 20010G16KT 10SM FEW041 BKN047 OVC100 10/02 A3006 RMK AO1
Loading
Personal Weather Stations






























Interactive Weather Map New forecast layout! Learn more

10-Day Weather Forecast

Advertisements
Track Severe Weather on mobile